Wetterdaten: Woche 01.10.07 - 07.10.07 (KW40)
Datum Zeit Temperatur Luftfeuchte Luftdruck Niederschlag
01.10.2007 00:00 8,9 C 87 % 1026 hPa 0,0 l/m
01.10.2007 01:00 8,9 C 90 % 1026 hPa 0,0 l/m
01.10.2007 02:00 9,4 C 92 % 1026 hPa 0,0 l/m
01.10.2007 03:00 9,2 C 93 % 1025 hPa 0,0 l/m
01.10.2007 04:00 8,7 C 94 % 1025 hPa 0,0 l/m
01.10.2007 05:00 8,5 C 94 % 1025 hPa 0,0 l/m
01.10.2007 06:00 8,0 C 94 % 1025 hPa 0,0 l/m
01.10.2007 07:00 7,6 C 95 % 1025 hPa 0,0 l/m
01.10.2007 08:00 7,7 C 96 % 1026 hPa 0,0 l/m
01.10.2007 09:00 9,2 C 96 % 1026 hPa 0,0 l/m
01.10.2007 10:00 13,7 C 94 % 1026 hPa 0,0 l/m
01.10.2007 11:00 16,7 C 76 % 1025 hPa 0,0 l/m
01.10.2007 12:00 17,9 C 62 % 1025 hPa 0,0 l/m
01.10.2007 13:00 20,0 C 49 % 1025 hPa 0,0 l/m
01.10.2007 14:00 21,8 C 43 % 1024 hPa 0,0 l/m
01.10.2007 15:00 22,5 C 40 % 1024 hPa 0,0 l/m
01.10.2007 16:00 21,4 C 43 % 1024 hPa 0,0 l/m
01.10.2007 17:00 20,7 C 44 % 1024 hPa 0,0 l/m
01.10.2007 18:00 19,3 C 54 % 1023 hPa 0,0 l/m
01.10.2007 19:00 16,4 C 67 % 1024 hPa 0,0 l/m
01.10.2007 20:00 14,5 C 73 % 1024 hPa 0,0 l/m
01.10.2007 21:00 13,3 C 79 % 1024 hPa 0,0 l/m
01.10.2007 22:00 12,3 C 84 % 1024 hPa 0,0 l/m
01.10.2007 23:00 11,6 C 87 % 1024 hPa 0,0 l/m
02.10.2007 00:00 11,0 C 89 % 1023 hPa 0,0 l/m
02.10.2007 01:00 10,4 C 91 % 1023 hPa 0,0 l/m
02.10.2007 02:00 10,1 C 92 % 1023 hPa 0,0 l/m
02.10.2007 03:00 10,0 C 93 % 1023 hPa 0,0 l/m
02.10.2007 04:00 9,6 C 95 % 1023 hPa 0,0 l/m
02.10.2007 05:00 9,7 C 95 % 1023 hPa 0,0 l/m
02.10.2007 06:00 9,6 C 96 % 1023 hPa 0,0 l/m
02.10.2007 07:00 9,4 C 96 % 1023 hPa 0,0 l/m
02.10.2007 08:00 9,7 C 97 % 1023 hPa 0,0 l/m
02.10.2007 09:00 11,7 C 98 % 1023 hPa 0,0 l/m
02.10.2007 10:00 14,4 C 97 % 1022 hPa 0,0 l/m
02.10.2007 11:00 17,1 C 83 % 1022 hPa 0,0 l/m
02.10.2007 12:00 19,0 C 67 % 1022 hPa 0,0 l/m
02.10.2007 13:00 20,4 C 60 % 1022 hPa 0,0 l/m
02.10.2007 14:00 21,3 C 55 % 1021 hPa 0,0 l/m
02.10.2007 15:00 20,9 C 57 % 1021 hPa 0,0 l/m
02.10.2007 16:00 20,5 C 59 % 1021 hPa 0,0 l/m
02.10.2007 17:00 19,7 C 65 % 1021 hPa 0,0 l/m
02.10.2007 18:00 18,6 C 73 % 1021 hPa 0,0 l/m
02.10.2007 19:00 17,3 C 80 % 1021 hPa 0,0 l/m
02.10.2007 20:00 16,1 C 83 % 1021 hPa 0,0 l/m
02.10.2007 21:00 15,4 C 87 % 1021 hPa 0,0 l/m
02.10.2007 22:00 14,9 C 90 % 1021 hPa 0,0 l/m
02.10.2007 23:00 14,5 C 92 % 1021 hPa 0,0 l/m
03.10.2007 00:00 14,2 C 93 % 1021 hPa 0,0 l/m
03.10.2007 01:00 13,9 C 94 % 1021 hPa 0,0 l/m
03.10.2007 02:00 13,5 C 95 % 1021 hPa 0,0 l/m
03.10.2007 03:00 13,0 C 96 % 1021 hPa 0,0 l/m
03.10.2007 04:00 12,7 C 96 % 1021 hPa 0,0 l/m
03.10.2007 05:00 12,5 C 97 % 1021 hPa 0,0 l/m
03.10.2007 06:00 12,4 C 97 % 1021 hPa 0,0 l/m
03.10.2007 07:00 12,0 C 98 % 1021 hPa 0,0 l/m
03.10.2007 08:00 12,0 C 98 % 1021 hPa 0,0 l/m
03.10.2007 09:00 13,2 C 98 % 1021 hPa 0,0 l/m
03.10.2007 10:00 16,4 C 97 % 1021 hPa 0,0 l/m
03.10.2007 11:00 19,3 C 82 % 1021 hPa 0,0 l/m
03.10.2007 12:00 20,7 C 65 % 1021 hPa 0,0 l/m
03.10.2007 13:00 22,5 C 54 % 1021 hPa 0,0 l/m
03.10.2007 14:00 24,2 C 44 % 1020 hPa 0,0 l/m
03.10.2007 15:00 25,6 C 45 % 1020 hPa 0,0 l/m
03.10.2007 16:00 23,6 C 68 % 1020 hPa 0,0 l/m
03.10.2007 17:00 22,6 C 70 % 1019 hPa 0,0 l/m
03.10.2007 18:00 22,6 C 70 % 1019 hPa 0,0 l/m
03.10.2007 19:00 18,6 C 77 % 1020 hPa 0,0 l/m
03.10.2007 20:00 16,5 C 80 % 1020 hPa 0,0 l/m
03.10.2007 21:00 15,8 C 83 % 1020 hPa 0,0 l/m
03.10.2007 22:00 15,2 C 84 % 1021 hPa 0,0 l/m
03.10.2007 23:00 14,7 C 85 % 1021 hPa 0,0 l/m
04.10.2007 00:00 14,5 C 85 % 1021 hPa 0,0 l/m
04.10.2007 01:00 14,7 C 85 % 1021 hPa 0,0 l/m
04.10.2007 02:00 14,7 C 86 % 1021 hPa 0,0 l/m
04.10.2007 03:00 14,8 C 86 % 1021 hPa 0,0 l/m
04.10.2007 04:00 14,9 C 87 % 1021 hPa 0,0 l/m
04.10.2007 05:00 14,9 C 87 % 1022 hPa 0,0 l/m
04.10.2007 06:00 14,9 C 86 % 1022 hPa 0,0 l/m
04.10.2007 07:00 15,1 C 86 % 1022 hPa 0,0 l/m
04.10.2007 08:00 15,4 C 87 % 1023 hPa 0,0 l/m
04.10.2007 09:00 15,5 C 86 % 1023 hPa 0,0 l/m
04.10.2007 10:00 16,3 C 86 % 1023 hPa 0,0 l/m
04.10.2007 11:00 16,8 C 86 % 1023 hPa 0,0 l/m
04.10.2007 12:00 17,3 C 87 % 1023 hPa 0,0 l/m
04.10.2007 13:00 18,4 C 86 % 1023 hPa 0,0 l/m
04.10.2007 14:00 19,4 C 86 % 1022 hPa 0,0 l/m
04.10.2007 15:00 20,4 C 86 % 1022 hPa 0,0 l/m
04.10.2007 16:00 21,0 C 85 % 1022 hPa 0,0 l/m
04.10.2007 17:00 20,5 C 85 % 1022 hPa 0,0 l/m
04.10.2007 18:00 19,5 C 85 % 1022 hPa 0,0 l/m
04.10.2007 19:00 18,0 C 85 % 1022 hPa 0,0 l/m
04.10.2007 20:00 17,1 C 85 % 1022 hPa 0,0 l/m
04.10.2007 21:00 16,5 C 85 % 1022 hPa 0,0 l/m
04.10.2007 22:00 16,0 C 85 % 1022 hPa 0,0 l/m
04.10.2007 23:00 15,9 C 85 % 1023 hPa 0,0 l/m
05.10.2007 00:00 16,1 C 85 % 1023 hPa 0,0 l/m
05.10.2007 01:00 16,1 C 85 % 1023 hPa 0,0 l/m
05.10.2007 02:00 16,1 C 85 % 1023 hPa 0,0 l/m
05.10.2007 03:00 16,2 C 85 % 1023 hPa 0,0 l/m
05.10.2007 04:00 16,0 C 85 % 1022 hPa 0,0 l/m
05.10.2007 05:00 15,3 C 85 % 1022 hPa 0,0 l/m
05.10.2007 06:00 15,3 C 85 % 1022 hPa 0,0 l/m
05.10.2007 07:00 15,4 C 85 % 1022 hPa 0,0 l/m
05.10.2007 08:00 15,7 C 85 % 1022 hPa 0,0 l/m
05.10.2007 09:00 16,3 C 85 % 1023 hPa 0,0 l/m
05.10.2007 10:00 17,0 C 84 % 1023 hPa 0,0 l/m
05.10.2007 11:00 17,9 C 84 % 1023 hPa 0,0 l/m
05.10.2007 12:00 19,7 C 84 % 1023 hPa 0,0 l/m
05.10.2007 13:00 20,4 C 84 % 1022 hPa 0,0 l/m
05.10.2007 14:00 21,2 C 84 % 1022 hPa 0,0 l/m
05.10.2007 15:00 20,9 C 85 % 1022 hPa 0,0 l/m
05.10.2007 16:00 20,0 C 86 % 1021 hPa 0,0 l/m
05.10.2007 17:00 19,0 C 87 % 1021 hPa 0,0 l/m
05.10.2007 18:00 18,1 C 88 % 1021 hPa 0,0 l/m
05.10.2007 19:00 17,4 C 88 % 1021 hPa 0,0 l/m
05.10.2007 20:00 16,9 C 89 % 1022 hPa 0,0 l/m
05.10.2007 21:00 16,6 C 89 % 1022 hPa 0,0 l/m
05.10.2007 22:00 16,4 C 89 % 1022 hPa 0,0 l/m
05.10.2007 23:00 16,1 C 89 % 1022 hPa 0,0 l/m
06.10.2007 00:00 15,7 C 89 % 1021 hPa 0,0 l/m
06.10.2007 01:00 15,4 C 89 % 1021 hPa 0,0 l/m
06.10.2007 02:00 15,0 C 89 % 1021 hPa 0,0 l/m
06.10.2007 03:00 14,5 C 89 % 1021 hPa 0,0 l/m
06.10.2007 04:00 13,6 C 89 % 1021 hPa 0,0 l/m
06.10.2007 05:00 12,1 C 89 % 1020 hPa 0,0 l/m
06.10.2007 06:00 11,1 C 89 % 1020 hPa 0,0 l/m
06.10.2007 07:00 11,2 C 89 % 1020 hPa 0,0 l/m
06.10.2007 08:00 11,2 C 89 % 1021 hPa 0,0 l/m
06.10.2007 09:00 11,3 C 89 % 1021 hPa 0,0 l/m
06.10.2007 10:00 11,8 C 90 % 1021 hPa 0,0 l/m
06.10.2007 11:00 13,2 C 90 % 1021 hPa 0,0 l/m
06.10.2007 12:00 14,2 C 89 % 1021 hPa 0,0 l/m
06.10.2007 13:00 14,9 C 89 % 1021 hPa 0,0 l/m
06.10.2007 14:00 15,1 C 85 % 1021 hPa 0,0 l/m
06.10.2007 15:00 14,7 C 78 % 1021 hPa 0,0 l/m
06.10.2007 16:00 14,7 C 75 % 1020 hPa 0,0 l/m
06.10.2007 17:00 14,5 C 67 % 1020 hPa 0,0 l/m
06.10.2007 18:00 13,8 C 66 % 1021 hPa 0,0 l/m
06.10.2007 19:00 12,5 C 68 % 1021 hPa 0,0 l/m
06.10.2007 20:00 11,1 C 70 % 1021 hPa 0,0 l/m
06.10.2007 21:00 9,8 C 71 % 1022 hPa 0,0 l/m
06.10.2007 22:00 8,5 C 72 % 1022 hPa 0,0 l/m
06.10.2007 23:00 8,3 C 74 % 1022 hPa 0,0 l/m
07.10.2007 00:00 7,9 C 74 % 1021 hPa 0,0 l/m
07.10.2007 01:00 8,5 C 75 % 1021 hPa 0,0 l/m
07.10.2007 02:00 8,8 C 74 % 1021 hPa 0,0 l/m
07.10.2007 03:00 8,7 C 74 % 1021 hPa 0,0 l/m
07.10.2007 04:00 8,7 C 74 % 1021 hPa 0,0 l/m
07.10.2007 05:00 8,2 C 73 % 1021 hPa 0,0 l/m
07.10.2007 06:00 7,9 C 73 % 1021 hPa 0,0 l/m
07.10.2007 07:00 7,5 C 73 % 1022 hPa 0,0 l/m
07.10.2007 08:00 7,6 C 74 % 1022 hPa 0,0 l/m
07.10.2007 09:00 7,9 C 74 % 1022 hPa 0,0 l/m
07.10.2007 10:00 8,5 C 73 % 1022 hPa 0,0 l/m
07.10.2007 11:00 9,8 C 73 % 1022 hPa 0,0 l/m
07.10.2007 12:00 11,9 C 70 % 1022 hPa 0,0 l/m
07.10.2007 13:00 13,8 C 67 % 1022 hPa 0,0 l/m
07.10.2007 14:00 15,8 C 62 % 1021 hPa 0,0 l/m
07.10.2007 15:00 16,2 C 56 % 1021 hPa 0,0 l/m
07.10.2007 16:00 15,5 C 53 % 1021 hPa 0,0 l/m
07.10.2007 17:00 15,0 C 52 % 1021 hPa 0,0 l/m
07.10.2007 18:00 14,6 C 55 % 1021 hPa 0,0 l/m
07.10.2007 19:00 12,3 C 60 % 1021 hPa 0,0 l/m
07.10.2007 20:00 10,3 C 64 % 1021 hPa 0,0 l/m
07.10.2007 21:00 9,2 C 66 % 1022 hPa 0,0 l/m
07.10.2007 22:00 8,5 C 66 % 1022 hPa 0,0 l/m
07.10.2007 23:00 7,6 C 66 % 1022 hPa 0,0 l/m
Min-Datum _ 01.10.07 03.10.07 03.10.07 -
_ Min-Zeit 08:01 15:28 16:11 -
Minimum _ 7,2 C 37 % 1019 hPa -
Max-Datum _ 03.10.07 01.10.07 01.10.07 01.10.07
_ Max-Zeit 15:53 10:08 00:26 00:00
Maximum _ 31,7 C 98 % 1026 hPa 0,0 l/m
Durchschnitt _ 14,7 C 80 % 1022 hPa #0,0 l/m

Durchschnitt Minimum Temp.14,2 C
Durchschnitt Maximum Temp.15,2 C